Time;durP1;ratioP1;P1;durP2;ratioP2;P2;SDS_P1;SDS_P2;PMS_P1;PMS_P2;Temp;Humidity;BMP_temperature;BMP_pressure;BME280_temperature;BME280_humidity;BME280_pressure;Samples;Min_cycle;Max_cycle;Signal;HPM_P1;HPM_P2
2021/04/17 00:00:35;;;;;;;4.3;2;;;;;;;2.48;67.70117;941.1588;;;;
2021/04/17 00:03:00;;;;;;;2.2;2;;;;;;;2.53;67.34961;941.1714;;;;
2021/04/17 00:05:26;;;;;;;3.2;2.5;;;;;;;2.54;67.16113;941.1332;;;;
2021/04/17 00:07:52;;;;;;;2.6;2.2;;;;;;;2.5;67.41113;941.0787;;;;
2021/04/17 00:10:22;;;;;;;4.6;2.4;;;;;;;2.49;67.60059;941.0666;;;;
2021/04/17 00:12:47;;;;;;;2.2;1.8;;;;;;;2.5;67.3457;940.9988;;;;
2021/04/17 00:15:22;;;;;;;7.9;3;;;;;;;2.46;67.50684;941.0204;;;;
2021/04/17 00:17:58;;;;;;;5.4;1.7;;;;;;;2.36;67.64746;941.0157;;;;
2021/04/17 00:20:24;;;;;;;2.9;2.3;;;;;;;2.21;68.07129;940.8918;;;;
2021/04/17 00:22:52;;;;;;;3.3;2.5;;;;;;;2.05;68.67285;940.919;;;;
2021/04/17 00:25:17;;;;;;;2.7;2;;;;;;;1.99;68.90918;940.9269;;;;
2021/04/17 00:27:42;;;;;;;1.9;1.7;;;;;;;1.94;69.14844;940.899;;;;
2021/04/17 00:30:08;;;;;;;1.8;1.6;;;;;;;1.76;69.84375;940.8792;;;;
2021/04/17 00:32:33;;;;;;;4;2.6;;;;;;;1.53;71.04785;940.9171;;;;
2021/04/17 00:34:59;;;;;;;2.3;1.7;;;;;;;1.54;71.3291;940.8664;;;;
2021/04/17 00:37:24;;;;;;;2.1;1.7;;;;;;;1.55;71.52051;940.8826;;;;
2021/04/17 00:39:50;;;;;;;2.9;1.5;;;;;;;1.53;71.57324;940.8245;;;;
2021/04/17 00:42:17;;;;;;;3.6;2.1;;;;;;;1.61;71.4541;940.7988;;;;
2021/04/17 00:44:42;;;;;;;3.1;2.1;;;;;;;1.66;71.31543;940.7278;;;;
2021/04/17 00:47:09;;;;;;;2.8;2.4;;;;;;;1.7;71.37891;940.6803;;;;
2021/04/17 00:49:34;;;;;;;5.1;2.2;;;;;;;1.76;71.09863;940.5961;;;;
2021/04/17 00:52:01;;;;;;;3;2.1;;;;;;;1.81;70.73828;940.5547;;;;
2021/04/17 00:54:26;;;;;;;2.7;2.1;;;;;;;1.85;70.5752;940.6248;;;;
2021/04/17 00:56:52;;;;;;;3.4;2.4;;;;;;;1.86;70.52246;940.6033;;;;
2021/04/17 00:59:18;;;;;;;4.4;2.1;;;;;;;1.76;70.75195;940.5427;;;;
2021/04/17 01:01:53;;;;;;;2.7;1.8;;;;;;;1.73;70.91309;940.5884;;;;
2021/04/17 01:04:19;;;;;;;3.5;1.9;;;;;;;1.71;70.93262;940.5781;;;;
2021/04/17 01:06:43;;;;;;;5.8;2.6;;;;;;;1.69;70.97461;940.5474;;;;
2021/04/17 01:09:09;;;;;;;4.8;2;;;;;;;1.72;70.97949;940.55;;;;
2021/04/17 01:11:34;;;;;;;3.4;2.4;;;;;;;1.71;70.94434;940.5081;;;;
2021/04/17 01:13:59;;;;;;;2;1.6;;;;;;;1.72;70.7998;940.5189;;;;
2021/04/17 01:16:36;;;;;;;4.9;1.7;;;;;;;1.64;71.05469;940.4807;;;;
2021/04/17 01:19:02;;;;;;;3.2;2.2;;;;;;;1.57;71.52344;940.5329;;;;
2021/04/17 01:21:27;;;;;;;2.3;2;;;;;;;1.54;71.70898;940.4835;;;;
2021/04/17 01:23:54;;;;;;;2.8;1.8;;;;;;;1.51;71.72656;940.4883;;;;
2021/04/17 01:26:19;;;;;;;3.7;1.8;;;;;;;1.37;72.26074;940.5162;;;;
2021/04/17 01:28:44;;;;;;;2.8;1.9;;;;;;;1.32;72.6543;940.5616;;;;
2021/04/17 01:31:11;;;;;;;3.1;1.4;;;;;;;1.31;72.6543;940.5535;;;;
2021/04/17 01:33:36;;;;;;;3.9;2.6;;;;;;;1.12;73.29004;940.4614;;;;
2021/04/17 01:36:03;;;;;;;4.8;2.7;;;;;;;0.93;74.15039;940.4881;;;;
2021/04/17 01:38:28;;;;;;;4.7;2.3;;;;;;;0.87;74.82227;940.5103;;;;
2021/04/17 01:40:54;;;;;;;5.6;2.6;;;;;;;0.98;74.68457;940.4813;;;;
2021/04/17 01:43:19;;;;;;;6.6;2.5;;;;;;;1.07;74.25391;940.4647;;;;
2021/04/17 01:45:44;;;;;;;2.4;2.1;;;;;;;1.19;73.82813;940.49;;;;
2021/04/17 01:48:10;;;;;;;2.4;2.1;;;;;;;1.16;73.56641;940.3884;;;;
2021/04/17 01:50:35;;;;;;;2.7;2.1;;;;;;;1.18;73.56934;940.4713;;;;
2021/04/17 01:53:02;;;;;;;7.3;2.8;;;;;;;1.23;73.46582;940.4825;;;;
2021/04/17 01:55:27;;;;;;;4.9;2.7;;;;;;;1.19;73.43848;940.4494;;;;
2021/04/17 01:57:55;;;;;;;2.7;2;;;;;;;1.24;73.25488;940.4447;;;;
2021/04/17 02:00:20;;;;;;;4.4;2;;;;;;;1.3;72.89844;940.4501;;;;
2021/04/17 02:02:45;;;;;;;3.2;1.9;;;;;;;1.16;72.97363;940.4037;;;;
2021/04/17 02:05:10;;;;;;;4.4;2.9;;;;;;;1.18;73.29004;940.396;;;;
2021/04/17 02:07:36;;;;;;;2.3;1.7;;;;;;;1.24;72.98828;940.3828;;;;
2021/04/17 02:10:01;;;;;;;26;2.6;;;;;;;1.32;72.48633;940.4053;;;;
2021/04/17 02:12:29;;;;;;;4;3.3;;;;;;;1.37;71.9375;940.2871;;;;
2021/04/17 02:14:54;;;;;;;5.2;1.9;;;;;;;1.4;71.57324;940.329;;;;
2021/04/17 02:17:22;;;;;;;4.6;2.3;;;;;;;1.41;71.59863;940.3409;;;;
2021/04/17 02:19:47;;;;;;;5.8;3;;;;;;;1.42;71.87793;940.368;;;;
2021/04/17 02:22:15;;;;;;;5;2.5;;;;;;;1.41;72.02148;940.3117;;;;
2021/04/17 02:24:40;;;;;;;2.2;1.9;;;;;;;1.41;71.77734;940.225;;;;
2021/04/17 02:27:05;;;;;;;2.7;2.2;;;;;;;1.4;71.33789;940.2905;;;;
2021/04/17 02:29:30;;;;;;;4.2;3.1;;;;;;;1.41;70.99316;940.216;;;;
2021/04/17 02:31:57;;;;;;;4.2;2.2;;;;;;;1.45;71.09961;940.2539;;;;
2021/04/17 02:34:22;;;;;;;4.6;3.1;;;;;;;1.43;71.34375;940.2611;;;;
2021/04/17 02:36:48;;;;;;;4.3;2.6;;;;;;;1.46;70.82324;940.3016;;;;
2021/04/17 02:39:13;;;;;;;3.3;2.4;;;;;;;1.41;70.53613;940.2436;;;;
2021/04/17 02:41:39;;;;;;;9.1;2.3;;;;;;;1.41;70.63672;940.2727;;;;
2021/04/17 02:44:04;;;;;;;5.5;2.2;;;;;;;1.42;70.82813;940.2615;;;;
2021/04/17 02:46:31;;;;;;;7.4;3;;;;;;;1.31;72.18457;940.2867;;;;
2021/04/17 02:48:56;;;;;;;4.5;3.1;;;;;;;1.26;72.52148;940.2881;;;;
2021/04/17 02:51:22;;;;;;;9.7;3.1;;;;;;;1.27;72.9707;940.3222;;;;
2021/04/17 02:53:48;;;;;;;3.1;2.7;;;;;;;1.2;73.51855;940.2965;;;;
2021/04/17 02:56:12;;;;;;;3.4;2.9;;;;;;;1.13;73.58398;940.3076;;;;
2021/04/17 02:58:37;;;;;;;4.4;3;;;;;;;1.16;73.59961;940.2555;;;;
2021/04/17 03:01:03;;;;;;;3;2.1;;;;;;;1.17;73.26465;940.2575;;;;
2021/04/17 03:03:29;;;;;;;5.1;2.6;;;;;;;1.15;72.6377;940.2709;;;;
2021/04/17 03:05:55;;;;;;;4.9;2.7;;;;;;;1.11;72.58496;940.2824;;;;
2021/04/17 03:08:20;;;;;;;4.1;2.4;;;;;;;1.12;72.46387;940.2473;;;;
2021/04/17 03:10:47;;;;;;;2.9;2.3;;;;;;;1.07;72.4668;940.2523;;;;
2021/04/17 03:13:12;;;;;;;4.3;2.5;;;;;;;0.95;72.79297;940.2595;;;;
2021/04/17 03:15:49;;;;;;;4.6;2.6;;;;;;;0.88;73.18262;940.217;;;;
2021/04/17 03:18:14;;;;;;;4.3;2.6;;;;;;;0.76;73.69824;940.1897;;;;
2021/04/17 03:20:42;;;;;;;3.5;2.4;;;;;;;0.71;74.05469;940.2293;;;;
2021/04/17 03:23:07;;;;;;;3.9;2.7;;;;;;;0.53;74.50488;940.2562;;;;
2021/04/17 03:25:35;;;;;;;2.8;2;;;;;;;0.55;74.57617;940.2246;;;;
2021/04/17 03:28:00;;;;;;;3.9;2.7;;;;;;;0.49;74.78809;940.2339;;;;
2021/04/17 03:30:28;;;;;;;4.7;3;;;;;;;0.44;74.91406;940.2043;;;;
2021/04/17 03:32:51;;;;;;;4.4;2.7;;;;;;;0.44;75.13672;940.1667;;;;
2021/04/17 03:35:16;;;;;;;8.8;3.2;;;;;;;0.47;75.11914;940.1859;;;;
2021/04/17 03:37:41;;;;;;;3.4;2.3;;;;;;;0.35;75.61035;940.1735;;;;
2021/04/17 03:40:06;;;;;;;9.6;4.5;;;;;;;0.07;77.18652;940.1541;;;;
2021/04/17 03:42:32;;;;;;;15;3.8;;;;;;;-0.01;78.08496;940.1567;;;;
2021/04/17 03:44:58;;;;;;;5.8;3.4;;;;;;;0.11;77.69629;940.0891;;;;
2021/04/17 03:47:23;;;;;;;6.2;3.2;;;;;;;0.25;77.10645;940.1722;;;;
2021/04/17 03:49:49;;;;;;;5.2;2.6;;;;;;;0.34;76.42383;940.2162;;;;
2021/04/17 03:52:14;;;;;;;5.6;3.2;;;;;;;0.27;76.1416;940.1046;;;;
2021/04/17 03:54:40;;;;;;;4.1;3.2;;;;;;;0.22;76.28906;940.1786;;;;
2021/04/17 03:57:05;;;;;;;4.6;3.2;;;;;;;0.17;76.24609;940.1867;;;;
2021/04/17 03:59:31;;;;;;;12;3.4;;;;;;;0.21;76.10938;940.2855;;;;
2021/04/17 04:02:30;;;;;;;6;2.8;;;;;;;0.06;76.72754;940.2844;;;;
2021/04/17 04:04:55;;;;;;;10.6;3.7;;;;;;;0.01;76.98535;940.2933;;;;
2021/04/17 04:07:20;;;;;;;9.5;3.2;;;;;;;0.01;76.94238;940.2623;;;;
2021/04/17 04:09:45;;;;;;;2.9;2;;;;;;;-0.18;77.63184;940.2742;;;;
2021/04/17 04:12:12;;;;;;;3.9;2.6;;;;;;;-0.26;78.11816;940.2885;;;;
2021/04/17 04:14:37;;;;;;;10.8;2.7;;;;;;;-0.28;78.34668;940.3324;;;;
2021/04/17 04:17:03;;;;;;;4.4;2.7;;;;;;;-0.31;78.68848;940.3251;;;;
2021/04/17 04:19:29;;;;;;;6.2;2.4;;;;;;;-0.31;78.93164;940.2983;;;;
2021/04/17 04:21:54;;;;;;;4.3;2.6;;;;;;;-0.31;78.97559;940.3633;;;;
2021/04/17 04:24:20;;;;;;;2.9;2.4;;;;;;;-0.28;78.71582;940.4166;;;;
2021/04/17 04:26:45;;;;;;;5.3;2.6;;;;;;;-0.29;78.70117;940.3851;;;;
2021/04/17 04:29:11;;;;;;;4.7;2.7;;;;;;;-0.34;78.7041;940.3476;;;;
2021/04/17 04:31:37;;;;;;;2.8;2.2;;;;;;;-0.35;78.80273;940.43;;;;
2021/04/17 04:34:02;;;;;;;3.4;2.6;;;;;;;-0.48;79.43359;940.4045;;;;
2021/04/17 04:36:27;;;;;;;5.4;2.9;;;;;;;-0.55;80.12109;940.4461;;;;
2021/04/17 04:38:54;;;;;;;5.8;3.3;;;;;;;-0.48;80.13477;940.4702;;;;
2021/04/17 04:41:19;;;;;;;5.4;2.8;;;;;;;-0.34;79.63867;940.407;;;;
2021/04/17 04:43:45;;;;;;;3.6;2.3;;;;;;;-0.25;78.94141;940.37;;;;
2021/04/17 04:46:10;;;;;;;5.1;3.3;;;;;;;-0.12;78.4209;940.3904;;;;
2021/04/17 04:48:36;;;;;;;7.2;3.1;;;;;;;0;77.66504;940.377;;;;
2021/04/17 04:51:01;;;;;;;4.6;2.4;;;;;;;0;77.39746;940.4412;;;;
2021/04/17 04:53:28;;;;;;;3.8;2.5;;;;;;;0.04;77.35938;940.3963;;;;
2021/04/17 04:55:53;;;;;;;2.8;2.6;;;;;;;0.1;77.00195;940.4562;;;;
2021/04/17 04:58:19;;;;;;;4.4;2.3;;;;;;;0.04;76.96973;940.4791;;;;
2021/04/17 05:00:44;;;;;;;6.8;3.8;;;;;;;-0.13;77.5957;940.4568;;;;
2021/04/17 05:03:10;;;;;;;3.4;2.3;;;;;;;-0.13;78.01855;940.4597;;;;
2021/04/17 05:05:35;;;;;;;5.1;2.6;;;;;;;-0.01;77.56348;940.471;;;;
2021/04/17 05:08:02;;;;;;;4.6;3.1;;;;;;;-0.16;77.64453;940.4214;;;;
2021/04/17 05:10:27;;;;;;;8.2;3.1;;;;;;;-0.09;77.48145;940.4721;;;;
2021/04/17 05:12:53;;;;;;;9.6;3.8;;;;;;;-0.07;77.47363;940.4694;;;;
2021/04/17 05:15:21;;;;;;;4.9;3.3;;;;;;;0.14;77.08789;940.385;;;;
2021/04/17 05:17:46;;;;;;;3.6;2.4;;;;;;;0.26;76.44238;940.5018;;;;
2021/04/17 05:20:13;;;;;;;3.9;3.5;;;;;;;0.36;75.80078;940.5599;;;;
2021/04/17 05:22:38;;;;;;;4.7;2.9;;;;;;;0.4;75.55078;940.5244;;;;
2021/04/17 05:25:06;;;;;;;4.2;2.9;;;;;;;0.47;75.17383;940.4827;;;;
2021/04/17 05:27:31;;;;;;;3.8;2.8;;;;;;;0.37;75.37891;940.5003;;;;
2021/04/17 05:29:57;;;;;;;3.3;2.7;;;;;;;0.34;75.94238;940.4797;;;;
2021/04/17 05:32:22;;;;;;;8.2;3;;;;;;;0.42;75.67871;940.3666;;;;
2021/04/17 05:34:48;;;;;;;3.1;2.7;;;;;;;0.8;75.36719;940.3976;;;;
2021/04/17 05:37:13;;;;;;;6.3;4.4;;;;;;;1.91;72.09766;940.2916;;;;
2021/04/17 05:39:39;;;;;;;3.8;3;;;;;;;3.15;65.68652;940.3348;;;;
2021/04/17 05:42:04;;;;;;;5.8;3.4;;;;;;;4.25;61.59082;940.3257;;;;
2021/04/17 05:44:31;;;;;;;6.4;3.2;;;;;;;4.68;59.1875;940.2919;;;;
2021/04/17 05:46:56;;;;;;;4.8;3.5;;;;;;;5;58.2168;940.2714;;;;
2021/04/17 05:49:22;;;;;;;4.5;2.9;;;;;;;4.31;59.81152;940.2087;;;;
2021/04/17 05:51:47;;;;;;;7.6;3.1;;;;;;;3.94;60.58984;940.2028;;;;
2021/04/17 05:54:14;;;;;;;4.4;3;;;;;;;3.13;63.53906;940.1828;;;;
2021/04/17 05:56:38;;;;;;;2.3;2.1;;;;;;;3.39;63.58984;940.1486;;;;
2021/04/17 05:59:04;;;;;;;4.6;3.2;;;;;;;2.85;64.46191;940.198;;;;
2021/04/17 06:01:29;;;;;;;3.8;2.8;;;;;;;2.07;67.70117;940.1917;;;;
2021/04/17 06:03:56;;;;;;;6.9;3.7;;;;;;;1.8;68.89941;940.2617;;;;
2021/04/17 06:06:21;;;;;;;5.6;3.3;;;;;;;1.73;69.34766;940.2224;;;;
2021/04/17 06:08:47;;;;;;;6.2;3.6;;;;;;;2.14;68.15039;940.2266;;;;
2021/04/17 06:11:12;;;;;;;4.1;3.3;;;;;;;2.67;67.3252;940.275;;;;
2021/04/17 06:13:39;;;;;;;6.1;3.2;;;;;;;2.77;65.52539;940.1788;;;;
2021/04/17 06:16:10;;;;;;;5.5;3;;;;;;;3.15;64.22754;940.2672;;;;
2021/04/17 06:18:37;;;;;;;7.7;2.8;;;;;;;3.36;63.15918;940.1923;;;;
2021/04/17 06:21:02;;;;;;;6;2.8;;;;;;;4;61.67871;940.2458;;;;
2021/04/17 06:23:27;;;;;;;4.3;2.7;;;;;;;5.15;57.87598;940.1281;;;;
2021/04/17 06:25:53;;;;;;;6.1;3;;;;;;;6.06;54.74512;940.0678;;;;
2021/04/17 06:28:18;;;;;;;4.6;3.2;;;;;;;7.76;51.21875;940.0698;;;;
2021/04/17 06:30:45;;;;;;;4.3;2.8;;;;;;;7.82;48.20898;940.0192;;;;
2021/04/17 06:33:10;;;;;;;4.3;2.6;;;;;;;8.29;48.41992;940.002;;;;
2021/04/17 06:35:37;;;;;;;4.3;2.5;;;;;;;7.95;47.23633;939.9681;;;;
2021/04/17 06:38:02;;;;;;;3.3;2.3;;;;;;;8.41;47.18457;939.937;;;;
2021/04/17 06:40:29;;;;;;;3.5;2.1;;;;;;;9;45.91699;939.9637;;;;
2021/04/17 06:42:54;;;;;;;2.4;1.7;;;;;;;10.8;42.61426;939.918;;;;
2021/04/17 06:45:19;;;;;;;2.1;1.3;;;;;;;12.06;39.96484;939.8362;;;;
2021/04/17 06:47:44;;;;;;;6.3;1.8;;;;;;;12.57;37.52246;939.8098;;;;
2021/04/17 06:50:10;;;;;;;1.6;1.5;;;;;;;13.09;39.66895;939.7916;;;;
2021/04/17 06:52:35;;;;;;;3.2;1.6;;;;;;;14.64;34.91113;939.8438;;;;
2021/04/17 06:55:00;;;;;;;3.2;2.2;;;;;;;14.76;33.51465;939.8449;;;;
2021/04/17 06:57:25;;;;;;;5.7;2.3;;;;;;;14.71;33.82227;939.8508;;;;
2021/04/17 06:59:50;;;;;;;2.2;1.4;;;;;;;15.16;32.87695;939.8058;;;;
2021/04/17 07:02:17;;;;;;;3.3;1.6;;;;;;;14.89;32.80957;939.7861;;;;
2021/04/17 07:04:42;;;;;;;1.8;1.4;;;;;;;14.46;34.06738;939.8137;;;;
2021/04/17 07:07:08;;;;;;;2.1;1.6;;;;;;;15.35;32.49805;939.8081;;;;
2021/04/17 07:09:33;;;;;;;2.3;1.4;;;;;;;15.83;32.31445;939.8315;;;;
2021/04/17 07:11:59;;;;;;;2.3;1.4;;;;;;;17.36;29.27246;939.7507;;;;
2021/04/17 07:14:25;;;;;;;2.8;1.7;;;;;;;17.82;28.32813;939.7076;;;;
2021/04/17 07:16:50;;;;;;;1.4;1.3;;;;;;;17.29;28.98926;939.7308;;;;
2021/04/17 07:19:18;;;;;;;1.9;1.4;;;;;;;17.64;28.66406;939.6892;;;;
2021/04/17 07:21:43;;;;;;;2.6;1.6;;;;;;;16.67;29.75977;939.7162;;;;
2021/04/17 07:24:11;;;;;;;2.9;1.3;;;;;;;16.45;31.45703;939.6947;;;;
2021/04/17 07:26:35;;;;;;;3.7;1.6;;;;;;;17.74;30.21484;939.58;;;;
2021/04/17 07:29:00;;;;;;;3.9;2.1;;;;;;;18.12;29.14941;939.6202;;;;
2021/04/17 07:31:25;;;;;;;2.6;1.3;;;;;;;16.92;29.37109;939.6161;;;;
2021/04/17 07:33:55;;;;;;;2.5;1.2;;;;;;;16.66;30.38379;939.6316;;;;
2021/04/17 07:36:21;;;;;;;3;1.6;;;;;;;17.02;29.48145;939.4925;;;;
2021/04/17 07:38:45;;;;;;;4.7;1.8;;;;;;;17.01;31.10352;939.5779;;;;
2021/04/17 07:41:10;;;;;;;2.4;1.6;;;;;;;17.22;30.37598;939.5875;;;;
2021/04/17 07:43:35;;;;;;;4.3;1.5;;;;;;;17.44;28.96387;939.5447;;;;
2021/04/17 07:46:01;;;;;;;2.2;1.5;;;;;;;18.48;28.23047;939.4991;;;;
2021/04/17 07:48:26;;;;;;;2.8;1.9;;;;;;;17.83;28.21289;939.5047;;;;
2021/04/17 07:50:51;;;;;;;7.3;1.6;;;;;;;17.7;28.84277;939.5339;;;;
2021/04/17 07:53:16;;;;;;;2.7;1.7;;;;;;;18.21;27.96973;939.4888;;;;
2021/04/17 07:55:43;;;;;;;2.3;1.8;;;;;;;17.94;28.51074;939.5125;;;;
2021/04/17 07:58:11;;;;;;;4.7;2;;;;;;;18.1;28.10254;939.5109;;;;
2021/04/17 08:00:33;;;;;;;2.7;1.9;;;;;;;18.61;27.38965;939.4925;;;;
2021/04/17 08:03:00;;;;;;;1.8;1.7;;;;;;;19.09;26.62793;939.4281;;;;
2021/04/17 08:05:25;;;;;;;2.9;1.6;;;;;;;19.26;27.30273;939.4917;;;;
2021/04/17 08:07:50;;;;;;;7.5;2.5;;;;;;;17.81;29.90625;939.3735;;;;
2021/04/17 08:10:15;;;;;;;2.8;2;;;;;;;17.26;29.30078;939.4061;;;;
2021/04/17 08:12:41;;;;;;;4.7;2.1;;;;;;;18.55;27.375;939.4346;;;;
2021/04/17 08:15:06;;;;;;;1.7;1.3;;;;;;;18.47;27.93945;939.3943;;;;
2021/04/17 08:17:32;;;;;;;1.8;1.6;;;;;;;18.06;28.19238;939.3786;;;;
2021/04/17 08:19:57;;;;;;;6.7;1.8;;;;;;;17.4;29.47168;939.3042;;;;
2021/04/17 08:22:22;;;;;;;3.1;1.9;;;;;;;17.62;29.46387;939.3569;;;;
2021/04/17 08:24:49;;;;;;;3;2.1;;;;;;;17.87;29.71289;939.3365;;;;
2021/04/17 08:27:14;;;;;;;2.7;1.9;;;;;;;17.9;29.2041;939.3431;;;;
2021/04/17 08:29:39;;;;;;;3.7;1.8;;;;;;;18.66;28.96387;939.3984;;;;
2021/04/17 08:32:04;;;;;;;3.3;2;;;;;;;19.75;27.2168;939.3577;;;;
2021/04/17 08:34:29;;;;;;;2;1.7;;;;;;;20.68;25.47363;939.3192;;;;
2021/04/17 08:36:55;;;;;;;7.9;3.4;;;;;;;21.29;24.90039;939.3017;;;;
2021/04/17 08:39:20;;;;;;;16.4;8.4;;;;;;;20.03;25.17969;939.3262;;;;
2021/04/17 08:41:46;;;;;;;5.3;2.6;;;;;;;19.48;26.72168;939.3038;;;;
2021/04/17 08:44:11;;;;;;;1.3;1.2;;;;;;;18.25;27.76367;939.2933;;;;
2021/04/17 08:46:36;;;;;;;2.1;1.6;;;;;;;16.91;29.50879;939.2671;;;;
2021/04/17 08:49:03;;;;;;;2.9;1.7;;;;;;;17.07;29.86719;939.2443;;;;
2021/04/17 08:51:26;;;;;;;4.2;1.9;;;;;;;17.19;30.39746;939.1727;;;;
2021/04/17 08:53:51;;;;;;;2;1.5;;;;;;;17.93;29.57715;939.1139;;;;
2021/04/17 08:56:16;;;;;;;2.3;1.5;;;;;;;16.65;32.22461;939.1468;;;;
2021/04/17 08:58:41;;;;;;;7;1.9;;;;;;;17.36;30.08398;939.1197;;;;
2021/04/17 09:01:06;;;;;;;1.4;1.3;;;;;;;17.76;30.19238;939.119;;;;
2021/04/17 09:03:32;;;;;;;3.2;1.9;;;;;;;17.79;29.8584;939.1072;;;;
2021/04/17 09:05:57;;;;;;;3.1;2;;;;;;;18.92;27.72363;939.0956;;;;
2021/04/17 09:08:23;;;;;;;2.8;2;;;;;;;19.94;26.03809;939.0131;;;;
2021/04/17 09:10:48;;;;;;;3.3;2.1;;;;;;;18.5;28.83691;939.0567;;;;
2021/04/17 09:13:27;;;;;;;2.5;1.8;;;;;;;18.36;28.10645;939.0164;;;;
2021/04/17 09:16:02;;;;;;;2.2;1.7;;;;;;;18.31;28.99902;938.9891;;;;
2021/04/17 09:18:27;;;;;;;2.5;1.4;;;;;;;17.58;29.55371;938.9805;;;;
2021/04/17 09:20:52;;;;;;;1.8;1.5;;;;;;;17.95;29.68359;938.9758;;;;
2021/04/17 09:23:17;;;;;;;2.7;1.8;;;;;;;17.57;28.92676;939.0023;;;;
2021/04/17 09:25:42;;;;;;;2;1.7;;;;;;;16.69;30.45508;938.9496;;;;
2021/04/17 09:28:07;;;;;;;2.4;1.8;;;;;;;16.22;32.4707;938.9745;;;;
2021/04/17 09:30:32;;;;;;;7.2;2.1;;;;;;;16.42;32.21875;938.8857;;;;
2021/04/17 09:33:11;;;;;;;3.2;2.1;;;;;;;15.22;33.38867;938.9411;;;;
2021/04/17 09:35:39;;;;;;;2.4;1.8;;;;;;;14.29;36.92285;938.9412;;;;
2021/04/17 09:38:04;;;;;;;2.2;2;;;;;;;15.15;33.83301;938.8635;;;;
2021/04/17 09:40:29;;;;;;;4.7;2.4;;;;;;;16.42;32.68164;938.8777;;;;
2021/04/17 09:42:54;;;;;;;2;1.5;;;;;;;16.82;31.44922;938.8453;;;;
2021/04/17 09:45:19;;;;;;;2.6;1.9;;;;;;;16.76;32.17383;938.8596;;;;
2021/04/17 09:47:45;;;;;;;2.9;1.8;;;;;;;16.42;33.6543;938.7555;;;;
2021/04/17 09:50:10;;;;;;;5.4;1.8;;;;;;;16.3;33.33203;938.8201;;;;
2021/04/17 09:52:35;;;;;;;2.3;1.7;;;;;;;15.63;35.90332;938.7122;;;;
2021/04/17 09:55:00;;;;;;;3.5;1.7;;;;;;;15.28;34.66309;938.7328;;;;
2021/04/17 09:57:25;;;;;;;5;1.7;;;;;;;14.09;37.25098;938.7575;;;;
2021/04/17 09:59:50;;;;;;;3.4;2;;;;;;;13.5;38.98145;938.6931;;;;
2021/04/17 10:02:16;;;;;;;2.5;2;;;;;;;13.7;38.94336;938.717;;;;
2021/04/17 10:04:42;;;;;;;1.6;1.4;;;;;;;14.57;38.47754;938.6266;;;;
2021/04/17 10:07:07;;;;;;;3;2;;;;;;;14.65;37.69043;938.6568;;;;
2021/04/17 10:09:33;;;;;;;1.4;1.3;;;;;;;14.06;38.2959;938.5942;;;;
2021/04/17 10:11:58;;;;;;;2.2;1.6;;;;;;;14.04;39.59473;938.5622;;;;
2021/04/17 10:14:23;;;;;;;3.2;1.9;;;;;;;14.5;38.66895;938.5499;;;;
2021/04/17 10:16:48;;;;;;;5;2.7;;;;;;;14.86;36.90137;938.5316;;;;
2021/04/17 10:19:16;;;;;;;2.4;1.7;;;;;;;15.59;34.83887;938.3864;;;;
2021/04/17 10:21:41;;;;;;;3.6;1.6;;;;;;;15.8;34.73926;938.3661;;;;
2021/04/17 10:24:10;;;;;;;2;1.8;;;;;;;15.85;36.59277;938.2864;;;;
2021/04/17 10:26:35;;;;;;;2.9;2;;;;;;;15.43;35.61035;938.3074;;;;
2021/04/17 10:29:01;;;;;;;2.1;1.4;;;;;;;15.44;36.97363;938.2888;;;;
2021/04/17 10:31:25;;;;;;;3.5;2.3;;;;;;;15.31;35.6582;938.2039;;;;
2021/04/17 10:33:50;;;;;;;2.9;2.1;;;;;;;14.84;36.02344;938.2183;;;;
2021/04/17 10:36:15;;;;;;;2.1;1.8;;;;;;;13.78;37.9375;938.2543;;;;
2021/04/17 10:38:41;;;;;;;2.8;1.9;;;;;;;13.78;38.52441;938.2399;;;;
2021/04/17 10:41:06;;;;;;;2;1.8;;;;;;;13.98;38.21875;938.1227;;;;
2021/04/17 10:43:31;;;;;;;2.6;1.7;;;;;;;14.45;37.76563;938.1287;;;;
2021/04/17 10:45:56;;;;;;;2.7;1.8;;;;;;;14.84;36.92285;938.1356;;;;
2021/04/17 10:48:24;;;;;;;1.9;1.6;;;;;;;14.88;37.64063;938.0833;;;;
2021/04/17 10:50:47;;;;;;;2.2;2;;;;;;;14.04;38.08691;938.0683;;;;
2021/04/17 10:53:13;;;;;;;4.3;2.2;;;;;;;13.39;40.92578;938.0793;;;;
2021/04/17 10:55:39;;;;;;;2.7;1.6;;;;;;;13.26;40.47754;938.0549;;;;
2021/04/17 10:58:04;;;;;;;5;2.4;;;;;;;12.77;40.43164;937.9348;;;;
2021/04/17 11:00:29;;;;;;;3.3;2.2;;;;;;;11.88;42.74219;938.0267;;;;
2021/04/17 11:02:55;;;;;;;9.6;2.2;;;;;;;11.54;43.30469;938.0427;;;;
2021/04/17 11:05:20;;;;;;;2.5;2.2;;;;;;;11.4;44.45703;938.0575;;;;
2021/04/17 11:07:46;;;;;;;3.8;2.6;;;;;;;10.96;46.77734;937.9975;;;;
2021/04/17 11:10:12;;;;;;;3.2;2.1;;;;;;;11.15;44.35156;938.0015;;;;
2021/04/17 11:12:37;;;;;;;2.1;1.8;;;;;;;11.03;44.69434;937.921;;;;
2021/04/17 11:15:02;;;;;;;4.3;2;;;;;;;10.94;44.96973;938.0012;;;;
2021/04/17 11:17:29;;;;;;;2.2;2;;;;;;;11.14;44.47656;937.8986;;;;
2021/04/17 11:19:54;;;;;;;4.2;2.3;;;;;;;11.09;44.36914;937.8417;;;;
2021/04/17 11:22:21;;;;;;;2.2;1.8;;;;;;;11.27;44.02148;937.8774;;;;
2021/04/17 11:24:45;;;;;;;2.7;2.1;;;;;;;10.85;47.26855;937.815;;;;
2021/04/17 11:27:10;;;;;;;2.5;2.1;;;;;;;11.1;43.75098;937.8498;;;;
2021/04/17 11:29:35;;;;;;;3.6;2.4;;;;;;;11.35;44.83008;937.8181;;;;
2021/04/17 11:32:01;;;;;;;3.2;2.1;;;;;;;11.14;44.99121;937.9321;;;;
2021/04/17 11:34:26;;;;;;;3.4;1.8;;;;;;;11.08;44.83691;937.8616;;;;
2021/04/17 11:36:51;;;;;;;3;2.4;;;;;;;11.27;44.78711;937.8025;;;;
2021/04/17 11:39:17;;;;;;;6.9;2.1;;;;;;;11.56;45.19434;937.7916;;;;
2021/04/17 11:41:46;;;;;;;1.9;1.7;;;;;;;12.07;42.97949;937.7628;;;;
2021/04/17 11:44:10;;;;;;;1.6;1.5;;;;;;;11.74;43.85059;937.8102;;;;
2021/04/17 11:46:35;;;;;;;3.2;1.9;;;;;;;11.63;44.96094;937.7898;;;;
2021/04/17 11:49:01;;;;;;;2.2;1.6;;;;;;;11.68;44.22266;937.8234;;;;
2021/04/17 11:51:26;;;;;;;3;1.9;;;;;;;11.63;44.37793;937.7698;;;;
2021/04/17 11:53:51;;;;;;;3.3;2;;;;;;;11.37;46.0332;937.8484;;;;
2021/04/17 11:56:19;;;;;;;4;2.2;;;;;;;11.34;45.03418;937.8347;;;;
2021/04/17 11:58:44;;;;;;;2.2;1.8;;;;;;;11.09;45.19141;937.8019;;;;
2021/04/17 12:01:10;;;;;;;1.7;1.6;;;;;;;11.02;45.43555;937.8149;;;;
2021/04/17 12:03:35;;;;;;;3.4;2;;;;;;;10.93;47.52832;937.8434;;;;
2021/04/17 12:06:01;;;;;;;2.2;1.7;;;;;;;11.05;46.99316;937.8526;;;;
2021/04/17 12:08:26;;;;;;;1.7;1.4;;;;;;;10.93;45.97363;937.8992;;;;
2021/04/17 12:10:51;;;;;;;2.4;2;;;;;;;10.94;45.67871;937.8603;;;;
2021/04/17 12:13:16;;;;;;;2.3;2.1;;;;;;;10.73;47.68945;937.8998;;;;
2021/04/17 12:15:49;;;;;;;3.1;2.2;;;;;;;10.27;48.1416;937.8689;;;;
2021/04/17 12:18:15;;;;;;;2.2;1.9;;;;;;;10.38;47.78809;937.8994;;;;
2021/04/17 12:20:40;;;;;;;4.5;2.8;;;;;;;10.4;47.23145;937.8789;;;;
2021/04/17 12:23:06;;;;;;;9.4;2.1;;;;;;;10.23;48.2959;937.9623;;;;
2021/04/17 12:25:32;;;;;;;4.3;2.4;;;;;;;10.16;49.15527;937.9666;;;;
2021/04/17 12:27:58;;;;;;;2.6;1.7;;;;;;;10.27;48.70117;937.9191;;;;
2021/04/17 12:30:23;;;;;;;3.3;2.3;;;;;;;9.8;49.10352;937.8453;;;;
2021/04/17 12:32:49;;;;;;;2;1.8;;;;;;;9.93;49.5625;937.8987;;;;
2021/04/17 12:35:15;;;;;;;2.4;1.9;;;;;;;10;48.06543;937.9114;;;;
2021/04/17 12:37:41;;;;;;;2.7;1.9;;;;;;;10.05;48.87988;937.8215;;;;
2021/04/17 12:40:06;;;;;;;3.8;2.6;;;;;;;9.95;48.70898;937.8878;;;;
2021/04/17 12:42:32;;;;;;;3.7;2.5;;;;;;;10.13;48.33008;937.9218;;;;
2021/04/17 12:44:57;;;;;;;4;2.7;;;;;;;10.15;47.96777;937.8281;;;;
2021/04/17 12:47:24;;;;;;;5.9;2.1;;;;;;;9.77;48.97363;937.9785;;;;
2021/04/17 12:49:49;;;;;;;5.4;3.3;;;;;;;9.79;48.58984;937.9183;;;;
2021/04/17 12:52:15;;;;;;;2.4;1.8;;;;;;;9.66;50.4209;938.0067;;;;
2021/04/17 12:54:40;;;;;;;5.7;2.5;;;;;;;9.65;50.04199;937.9484;;;;
2021/04/17 12:57:07;;;;;;;3.8;2.4;;;;;;;9.5;51.29102;937.9861;;;;
2021/04/17 12:59:32;;;;;;;4;2;;;;;;;9.42;51.79395;938.0359;;;;
2021/04/17 13:01:58;;;;;;;3.5;2.3;;;;;;;9.37;52.64063;938.0174;;;;
2021/04/17 13:04:23;;;;;;;4.1;2.4;;;;;;;9.44;51.55664;937.9885;;;;
2021/04/17 13:06:50;;;;;;;2.1;1.9;;;;;;;9.54;51.7168;937.9724;;;;
2021/04/17 13:09:15;;;;;;;6.2;2.6;;;;;;;9.2;52.07324;937.9313;;;;
2021/04/17 13:11:40;;;;;;;3.8;2.6;;;;;;;9.21;52.51855;937.916;;;;
2021/04/17 13:14:05;;;;;;;5.3;2.9;;;;;;;8.97;54.68555;937.9944;;;;
2021/04/17 13:16:33;;;;;;;2.4;2.2;;;;;;;9.08;53.58398;938.0154;;;;
2021/04/17 13:18:58;;;;;;;3.2;2.4;;;;;;;8.98;52.29785;937.9447;;;;
2021/04/17 13:21:24;;;;;;;3.1;1.9;;;;;;;8.75;53.12207;937.9821;;;;
2021/04/17 13:23:49;;;;;;;4.4;3;;;;;;;8.58;54.27148;937.9839;;;;
2021/04/17 13:26:16;;;;;;;3.6;2.3;;;;;;;8.44;54.3584;937.9832;;;;
2021/04/17 13:28:39;;;;;;;5.5;2.7;;;;;;;8.48;54.13574;937.9902;;;;
2021/04/17 13:31:04;;;;;;;3.5;2.1;;;;;;;8.45;54.58496;937.9706;;;;
2021/04/17 13:33:30;;;;;;;2.7;2.5;;;;;;;8.45;54.40332;937.8849;;;;
2021/04/17 13:35:55;;;;;;;3.3;2.6;;;;;;;8.38;54.64453;937.9794;;;;
2021/04/17 13:38:20;;;;;;;6.1;2.4;;;;;;;8.29;55.51855;937.957;;;;
2021/04/17 13:40:46;;;;;;;2.7;2.1;;;;;;;8.34;54.53711;937.9344;;;;
2021/04/17 13:43:12;;;;;;;5.4;2.8;;;;;;;8.46;54.0293;937.9058;;;;
2021/04/17 13:45:37;;;;;;;2.7;2.2;;;;;;;8.71;53.49316;937.9077;;;;
2021/04/17 13:48:03;;;;;;;3.4;2.4;;;;;;;8.66;53.5332;937.9149;;;;
2021/04/17 13:50:29;;;;;;;2.2;2;;;;;;;8.62;53.09473;937.9191;;;;
2021/04/17 13:52:54;;;;;;;2.9;2.2;;;;;;;8.68;53.1709;937.943;;;;
2021/04/17 13:55:20;;;;;;;2.7;1.8;;;;;;;8.94;53.3623;937.8711;;;;
2021/04/17 13:57:45;;;;;;;3.9;2.6;;;;;;;9.1;51.82422;937.9102;;;;
2021/04/17 14:00:12;;;;;;;3.9;2.6;;;;;;;9.32;51.66797;937.8547;;;;
2021/04/17 14:02:37;;;;;;;3.6;2.1;;;;;;;9.19;51.87793;937.7819;;;;
2021/04/17 14:05:02;;;;;;;5.5;3;;;;;;;9.18;53.0166;937.8961;;;;
2021/04/17 14:07:27;;;;;;;3.1;2;;;;;;;9.38;51.34473;937.9039;;;;
2021/04/17 14:09:54;;;;;;;3.6;2.9;;;;;;;9.38;52.58594;937.8943;;;;
2021/04/17 14:12:19;;;;;;;2.3;1.9;;;;;;;9.4;51.4834;937.9297;;;;
2021/04/17 14:14:45;;;;;;;2.1;1.9;;;;;;;9.12;53.14648;937.8668;;;;
2021/04/17 14:17:10;;;;;;;5.3;2.8;;;;;;;9.27;53.08496;937.8254;;;;
2021/04/17 14:19:35;;;;;;;2.8;2.3;;;;;;;9.05;53.78613;937.8864;;;;
2021/04/17 14:22:00;;;;;;;2.3;2;;;;;;;8.88;53.85547;937.8599;;;;
2021/04/17 14:24:25;;;;;;;4.6;2.5;;;;;;;8.75;54.63477;937.8258;;;;